createdAt,value
2023-03-14T00:01:21.446Z,98047.19
2023-03-14T00:03:49.614Z,98057.09
2023-03-14T00:06:17.323Z,98055.06
2023-03-14T00:08:45.371Z,98066.63
2023-03-14T00:11:14.459Z,98071.16
2023-03-14T00:13:41.562Z,98060.34
2023-03-14T00:16:11.339Z,98064.03
2023-03-14T00:18:38.182Z,98073.75
2023-03-14T00:21:08.014Z,98073.38
2023-03-14T00:23:36.540Z,98072.38
2023-03-14T00:26:04.684Z,98073.38
2023-03-14T00:28:31.139Z,98074.22
2023-03-14T00:30:57.855Z,98076.31
2023-03-14T00:33:24.546Z,98075.66
2023-03-14T00:35:56.043Z,98092.63
2023-03-14T00:38:24.329Z,98095.66
2023-03-14T00:40:50.841Z,98092.91
2023-03-14T00:43:17.434Z,98104.25
2023-03-14T00:45:43.909Z,98102.22
2023-03-14T00:48:10.590Z,98107.59
2023-03-14T00:50:37.216Z,98107.38
2023-03-14T00:53:03.636Z,98102.88
2023-03-14T00:55:31.412Z,98119.78
2023-03-14T00:57:58.057Z,98125.97
2023-03-14T01:00:24.551Z,98123.31
2023-03-14T01:02:51.170Z,98129.50
2023-03-14T01:05:17.752Z,98135.06
2023-03-14T01:07:44.193Z,98135.13
2023-03-14T01:10:11.437Z,98136.25
2023-03-14T01:12:39.220Z,98134.41
2023-03-14T01:15:06.391Z,98143.09
2023-03-14T01:17:32.914Z,98155.84
2023-03-14T01:20:00.429Z,98152.97
2023-03-14T01:22:27.036Z,98172.59
2023-03-14T01:24:53.517Z,98166.19
2023-03-14T01:27:19.997Z,98179.25
2023-03-14T01:29:47.750Z,98185.06
2023-03-14T01:32:14.285Z,98196.06
2023-03-14T01:34:40.995Z,98213.53
2023-03-14T01:37:07.495Z,98223.91
2023-03-14T01:39:34.164Z,98239.41
2023-03-14T01:42:01.141Z,98246.91
2023-03-14T01:44:27.636Z,98256.16
2023-03-14T01:46:55.515Z,98265.97
2023-03-14T01:49:27.392Z,98289.44
2023-03-14T01:51:58.577Z,98292.41
2023-03-14T01:54:31.122Z,98305.47
2023-03-14T01:57:04.402Z,98328.38
2023-03-14T01:59:33.037Z,98334.41
2023-03-14T02:02:01.335Z,98347.03
2023-03-14T02:04:31.020Z,98349.63
2023-03-14T02:07:03.939Z,98359.53
2023-03-14T02:09:31.579Z,98370.25
2023-03-14T02:11:58.907Z,98381.63
2023-03-14T02:14:31.497Z,98401.34
2023-03-14T02:16:58.921Z,98418.81
2023-03-14T02:19:44.865Z,98415.00
2023-03-14T02:22:13.949Z,98426.91
2023-03-14T02:24:47.600Z,98441.53
2023-03-14T02:27:17.383Z,98436.06
2023-03-14T02:29:51.626Z,98446.84
2023-03-14T02:32:20.083Z,98452.97
2023-03-14T02:34:50.321Z,98475.56
2023-03-14T02:37:19.569Z,98473.72
2023-03-14T02:39:46.402Z,98478.25
2023-03-14T02:42:14.927Z,98484.94
2023-03-14T02:44:52.252Z,98502.06
2023-03-14T02:47:21.320Z,98511.75
2023-03-14T02:49:48.347Z,98507.06
2023-03-14T02:52:14.908Z,98528.03
2023-03-14T02:54:41.357Z,98534.41
2023-03-14T02:57:07.807Z,98534.78
2023-03-14T02:59:35.606Z,98538.63
2023-03-14T03:02:02.080Z,98552.34
2023-03-14T03:04:28.510Z,98557.25
2023-03-14T03:06:54.974Z,98557.34
2023-03-14T03:09:21.567Z,98560.75
2023-03-14T03:11:48.083Z,98570.47
2023-03-14T03:14:14.538Z,98581.00
2023-03-14T03:16:42.363Z,98592.59
2023-03-14T03:19:08.902Z,98609.31
2023-03-14T03:21:35.359Z,98624.22
2023-03-14T03:24:02.014Z,98634.75
2023-03-14T03:26:28.434Z,98642.38
2023-03-14T03:28:54.881Z,98659.84
2023-03-14T03:31:21.414Z,98667.66
2023-03-14T03:33:49.233Z,98679.25
2023-03-14T03:36:15.674Z,98682.56
2023-03-14T03:38:42.172Z,98683.75
2023-03-14T03:41:09.176Z,98695.63
2023-03-14T03:43:35.717Z,98708.00
2023-03-14T03:46:04.169Z,98704.59
2023-03-14T03:48:30.672Z,98710.16
2023-03-14T03:50:58.543Z,98715.59
2023-03-14T03:53:33.216Z,98723.94
2023-03-14T03:56:00.751Z,98737.84
2023-03-14T03:58:27.232Z,98742.66
2023-03-14T04:00:53.681Z,98752.78
2023-03-14T04:03:20.214Z,98762.09
2023-03-14T04:05:46.947Z,98769.00
2023-03-14T04:08:14.727Z,98768.66
2023-03-14T04:10:41.216Z,98775.53
2023-03-14T04:13:07.761Z,98775.34
2023-03-14T04:15:34.178Z,98771.34
2023-03-14T04:18:00.652Z,98789.16
2023-03-14T04:20:27.051Z,98783.09
2023-03-14T04:22:53.545Z,98792.59
2023-03-14T04:25:21.508Z,98797.31
2023-03-14T04:27:48.485Z,98804.34
2023-03-14T04:30:14.992Z,98820.63
2023-03-14T04:32:41.486Z,98817.94
2023-03-14T04:35:08.481Z,98818.59
2023-03-14T04:37:34.967Z,98815.72
2023-03-14T04:40:01.457Z,98823.97
2023-03-14T04:42:29.210Z,98834.72
2023-03-14T04:44:55.766Z,98834.72
2023-03-14T04:47:22.185Z,98850.31
2023-03-14T04:49:48.652Z,98859.34
2023-03-14T04:52:15.133Z,98872.06
2023-03-14T04:54:41.591Z,98879.91
2023-03-14T04:57:08.099Z,98882.94
2023-03-14T04:59:36.049Z,98889.28
2023-03-14T05:02:02.574Z,98889.19
2023-03-14T05:04:29.032Z,98902.63
2023-03-14T05:06:55.633Z,98911.66
2023-03-14T05:09:22.773Z,98906.25
2023-03-14T05:11:49.261Z,98916.16
2023-03-14T05:14:15.687Z,98921.03
2023-03-14T05:16:43.606Z,98923.53
2023-03-14T05:19:11.277Z,98922.50
2023-03-14T05:21:37.875Z,98927.75
2023-03-14T05:24:04.856Z,98936.31
2023-03-14T05:26:31.396Z,98953.06
2023-03-14T05:28:57.811Z,98954.38
2023-03-14T05:31:24.448Z,98975.56
2023-03-14T05:33:52.203Z,98987.94
2023-03-14T05:36:18.630Z,98975.84
2023-03-14T05:38:45.110Z,98972.16
2023-03-14T05:41:11.555Z,98983.94
2023-03-14T05:43:38.058Z,98985.31
2023-03-14T05:46:04.790Z,98990.34
2023-03-14T05:48:31.368Z,98990.50
2023-03-14T05:50:59.157Z,99005.13
2023-03-14T05:53:26.444Z,98994.00
2023-03-14T05:55:54.927Z,99012.13
2023-03-14T05:58:22.439Z,99011.25
2023-03-14T06:00:48.904Z,99013.66
2023-03-14T06:03:15.503Z,99018.38
2023-03-14T06:05:41.974Z,99022.41
2023-03-14T06:08:09.737Z,99021.88
2023-03-14T06:10:36.662Z,99032.97
2023-03-14T06:13:03.203Z,99034.97
2023-03-14T06:15:29.730Z,99039.16
2023-03-14T06:17:56.864Z,99047.88
2023-03-14T06:20:23.534Z,99058.00
2023-03-14T06:22:50.015Z,99063.16
2023-03-14T06:25:17.953Z,99069.88
2023-03-14T06:27:44.520Z,99073.38
2023-03-14T06:30:12.751Z,99080.28
2023-03-14T06:32:39.216Z,99086.47
2023-03-14T06:35:06.746Z,99095.19
2023-03-14T06:37:33.280Z,99117.72
2023-03-14T06:39:59.739Z,99114.88
2023-03-14T06:42:27.504Z,99125.81
2023-03-14T06:44:53.969Z,99136.69
2023-03-14T06:47:20.469Z,99136.72
2023-03-14T06:49:46.887Z,99135.69
2023-03-14T06:52:13.548Z,99144.59
2023-03-14T06:54:40.117Z,99152.34
2023-03-14T06:57:06.632Z,99153.16
2023-03-14T06:59:34.697Z,99156.72
2023-03-14T07:02:01.303Z,99168.28
2023-03-14T07:04:27.900Z,99183.75
2023-03-14T07:06:55.466Z,99188.59
2023-03-14T07:09:21.992Z,99191.63
2023-03-14T07:11:48.770Z,99196.13
2023-03-14T07:14:15.358Z,99200.69
2023-03-14T07:16:43.687Z,99209.25
2023-03-14T07:19:10.412Z,99212.66
2023-03-14T07:21:36.959Z,99221.50
2023-03-14T07:24:03.726Z,99226.09
2023-03-14T07:26:30.335Z,99261.34
2023-03-14T07:28:56.861Z,99261.81
2023-03-14T07:31:23.427Z,99266.03
2023-03-14T07:33:51.277Z,99274.94
2023-03-14T07:36:18.301Z,99264.34
2023-03-14T07:38:44.843Z,99257.25
2023-03-14T07:41:11.318Z,99265.69
2023-03-14T07:43:37.794Z,99271.25
2023-03-14T07:46:04.446Z,99274.13
2023-03-14T07:48:31.033Z,99280.81
2023-03-14T07:50:58.926Z,99286.03
2023-03-14T07:53:25.536Z,99291.59
2023-03-14T07:55:53.109Z,99297.25
2023-03-14T07:58:20.423Z,99310.00
2023-03-14T08:00:46.896Z,99300.66
2023-03-14T08:03:13.354Z,99311.22
2023-03-14T08:05:40.815Z,99316.53
2023-03-14T08:08:09.350Z,99323.84
2023-03-14T08:10:36.103Z,99322.75
2023-03-14T08:13:02.674Z,99313.88
2023-03-14T08:15:31.020Z,99330.75
2023-03-14T08:17:57.839Z,99328.81
2023-03-14T08:20:27.672Z,99328.84
2023-03-14T08:22:56.599Z,99335.59
2023-03-14T08:25:24.934Z,99336.56
2023-03-14T08:27:51.955Z,99347.59
2023-03-14T08:30:20.453Z,99349.06
2023-03-14T08:32:47.196Z,99351.06
2023-03-14T08:35:14.420Z,99346.50
2023-03-14T08:37:41.098Z,99360.88
2023-03-14T08:40:09.061Z,99360.06
2023-03-14T08:42:37.023Z,99376.69
2023-03-14T08:45:04.252Z,99372.94
2023-03-14T08:47:30.958Z,99391.34
2023-03-14T08:49:57.516Z,99380.78
2023-03-14T08:52:24.168Z,99392.72
2023-03-14T08:54:51.952Z,99397.88
2023-03-14T08:57:18.503Z,99403.84
2023-03-14T08:59:46.446Z,99410.53
2023-03-14T09:02:13.602Z,99415.34
2023-03-14T09:04:40.445Z,99422.72
2023-03-14T09:07:06.938Z,99418.50
2023-03-14T09:09:33.416Z,99428.38
2023-03-14T09:12:00.008Z,99426.47
2023-03-14T09:14:26.696Z,99428.94
2023-03-14T09:16:54.542Z,99436.44
2023-03-14T09:19:21.355Z,99442.56
2023-03-14T09:21:47.812Z,99439.50
2023-03-14T09:24:14.296Z,99454.50
2023-03-14T09:26:40.845Z,99461.31
2023-03-14T09:29:07.330Z,99459.50
2023-03-14T09:31:34.198Z,99466.31
2023-03-14T09:34:02.299Z,99476.72
2023-03-14T09:36:29.692Z,99463.44
2023-03-14T09:38:56.381Z,99471.97
2023-03-14T09:41:27.134Z,99477.56
2023-03-14T09:44:01.618Z,99471.19
2023-03-14T09:46:29.737Z,99469.28
2023-03-14T09:48:56.184Z,99492.50
2023-03-14T09:51:24.397Z,99495.03
2023-03-14T09:53:51.647Z,99493.94
2023-03-14T09:56:21.114Z,99499.00
2023-03-14T09:58:51.623Z,99506.53
2023-03-14T10:01:23.879Z,99497.56
2023-03-14T10:03:54.670Z,99493.47
2023-03-14T10:06:23.314Z,99498.25
2023-03-14T10:08:51.204Z,99503.47
2023-03-14T10:11:18.767Z,99534.59
2023-03-14T10:13:51.127Z,99510.34
2023-03-14T10:16:17.925Z,99508.03
2023-03-14T10:18:46.951Z,99516.91
2023-03-14T10:21:25.721Z,99525.91
2023-03-14T10:23:53.462Z,99531.19
2023-03-14T10:26:25.589Z,99535.22
2023-03-14T10:28:53.840Z,99539.44
2023-03-14T10:31:26.073Z,99536.66
2023-03-14T10:34:00.057Z,99528.78
2023-03-14T10:36:29.475Z,99530.81
2023-03-14T10:39:19.332Z,99541.75
2023-03-14T10:41:48.915Z,99548.69
2023-03-14T10:44:20.621Z,99566.69
2023-03-14T10:46:47.207Z,99556.97
2023-03-14T10:49:28.036Z,99557.28
2023-03-14T10:51:54.734Z,99558.34
2023-03-14T10:54:23.756Z,99568.94
2023-03-14T10:56:58.542Z,99603.03
2023-03-14T10:59:25.364Z,99591.25
2023-03-14T11:01:58.673Z,99593.88
2023-03-14T11:04:44.315Z,99593.88
2023-03-14T11:07:15.976Z,99602.66
2023-03-14T11:09:51.258Z,99603.31
2023-03-14T11:12:34.376Z,99617.31
2023-03-14T11:15:06.216Z,99599.69
2023-03-14T11:17:42.397Z,99601.88
2023-03-14T11:20:31.194Z,99599.00
2023-03-14T11:23:03.691Z,99607.41
2023-03-14T11:25:38.002Z,99607.41
2023-03-14T11:28:14.948Z,99617.16
2023-03-14T11:30:50.978Z,99606.63
2023-03-14T11:33:22.280Z,99613.03
2023-03-14T11:35:56.570Z,99607.47
2023-03-14T11:38:30.922Z,99612.53
2023-03-14T11:41:00.493Z,99615.03
2023-03-14T11:43:30.791Z,99609.50
2023-03-14T11:46:04.767Z,99626.50
2023-03-14T11:48:37.858Z,99630.41
2023-03-14T11:51:12.174Z,99660.44
2023-03-14T11:53:48.190Z,99703.69
2023-03-14T11:56:24.816Z,99683.19
2023-03-14T11:58:58.297Z,99676.03
2023-03-14T12:01:33.650Z,99679.53
2023-03-14T12:04:08.690Z,99681.94
2023-03-14T12:06:41.580Z,99678.72
2023-03-14T12:09:10.889Z,99679.34
2023-03-14T12:11:44.617Z,99677.81
2023-03-14T12:14:22.452Z,99688.34
2023-03-14T12:16:49.959Z,99679.56
2023-03-14T12:19:28.910Z,99691.94
2023-03-14T12:22:01.652Z,99705.38
2023-03-14T12:24:32.971Z,99704.09
2023-03-14T12:27:02.881Z,99705.38
2023-03-14T12:29:29.874Z,99707.34
2023-03-14T12:32:08.778Z,99698.28
2023-03-14T12:34:40.412Z,99701.38
2023-03-14T12:37:19.546Z,99703.66
2023-03-14T12:39:57.013Z,99711.66
2023-03-14T12:42:45.070Z,99706.22
2023-03-14T12:45:25.161Z,99711.50
2023-03-14T12:47:56.856Z,99718.13
2023-03-14T12:50:32.593Z,99722.66
2023-03-14T12:53:28.734Z,99727.50
2023-03-14T12:56:02.471Z,99737.59
2023-03-14T12:58:36.295Z,99743.50
2023-03-14T13:01:03.611Z,99755.72
2023-03-14T13:03:40.432Z,99760.38
2023-03-14T13:06:09.920Z,99768.31
2023-03-14T13:08:40.796Z,99767.06
2023-03-14T13:11:11.342Z,99762.78
2023-03-14T13:13:46.649Z,99772.97
2023-03-14T13:16:17.291Z,99778.22
2023-03-14T13:18:45.971Z,99781.03
2023-03-14T13:21:16.627Z,99790.56
2023-03-14T13:23:56.811Z,99807.22
2023-03-14T13:26:26.026Z,99794.69
2023-03-14T13:28:54.713Z,99792.88
2023-03-14T13:31:24.440Z,99799.34
2023-03-14T13:34:00.328Z,99799.81
2023-03-14T13:36:27.286Z,99808.56
2023-03-14T13:38:57.614Z,99820.28
2023-03-14T13:41:25.282Z,99821.44
2023-03-14T13:43:51.806Z,99821.72
2023-03-14T13:46:22.417Z,99822.97
2023-03-14T13:48:55.619Z,99833.31
2023-03-14T13:51:23.604Z,99835.28
2023-03-14T13:53:52.319Z,99836.47
2023-03-14T13:56:19.769Z,99845.75
2023-03-14T13:58:47.190Z,99844.34
2023-03-14T14:01:16.998Z,99851.44
2023-03-14T14:03:50.936Z,99854.25
2023-03-14T14:06:28.999Z,99848.03
2023-03-14T14:08:56.680Z,99864.69
2023-03-14T14:11:48.864Z,99867.09
2023-03-14T14:14:20.913Z,99877.66
2023-03-14T14:16:52.413Z,99886.47
2023-03-14T14:19:25.125Z,99885.31
2023-03-14T14:21:52.571Z,99890.56
2023-03-14T14:24:31.690Z,99885.06
2023-03-14T14:27:01.555Z,99893.50
2023-03-14T14:29:30.335Z,99892.13
2023-03-14T14:32:02.868Z,99907.94
2023-03-14T14:34:39.654Z,99901.53
2023-03-14T14:37:07.094Z,99911.53
2023-03-14T14:39:34.366Z,99913.94
2023-03-14T14:42:01.577Z,99917.47
2023-03-14T14:44:31.372Z,99938.25
2023-03-14T14:46:59.346Z,99941.06
2023-03-14T14:49:33.145Z,99943.19
2023-03-14T14:52:05.061Z,99952.38
2023-03-14T14:54:37.940Z,99961.28
2023-03-14T14:57:07.050Z,99960.16
2023-03-14T14:59:44.346Z,99960.00
2023-03-14T15:02:32.109Z,99963.97
2023-03-14T15:05:00.481Z,99973.84
2023-03-14T15:07:28.316Z,99983.41
2023-03-14T15:09:55.083Z,99983.56
2023-03-14T15:12:21.848Z,99982.72
2023-03-14T15:14:48.393Z,99994.16
2023-03-14T15:17:14.953Z,99999.50
2023-03-14T15:19:41.835Z,99992.47
2023-03-14T15:22:13.605Z,99999.81
2023-03-14T15:24:40.267Z,100001.91
2023-03-14T15:27:13.844Z,99996.97
2023-03-14T15:29:40.505Z,100007.72
2023-03-14T15:32:10.571Z,100009.56
2023-03-14T15:34:37.098Z,100009.97
2023-03-14T15:37:03.756Z,100021.97
2023-03-14T15:39:31.921Z,100011.94
2023-03-14T15:41:58.799Z,100013.22
2023-03-14T15:44:25.455Z,100022.66
2023-03-14T15:46:52.560Z,100020.25
2023-03-14T15:49:19.140Z,100023.22
2023-03-14T15:51:45.638Z,100022.50
2023-03-14T15:54:12.153Z,100030.28
2023-03-14T15:56:40.606Z,100034.25
2023-03-14T15:59:07.501Z,100038.06
2023-03-14T16:01:34.166Z,100034.41
2023-03-14T16:04:00.901Z,100031.28
2023-03-14T16:06:27.339Z,100033.13
2023-03-14T16:08:53.881Z,100030.88
2023-03-14T16:11:21.677Z,100029.59
2023-03-14T16:13:50.824Z,100029.88
2023-03-14T16:16:17.493Z,100036.50
2023-03-14T16:18:44.321Z,100038.47
2023-03-14T16:21:13.767Z,100052.31
2023-03-14T16:23:40.378Z,100055.16
2023-03-14T16:26:10.467Z,100057.41
2023-03-14T16:28:37.847Z,100063.03
2023-03-14T16:31:07.651Z,100063.88
2023-03-14T16:33:35.342Z,100061.91
2023-03-14T16:36:04.176Z,100064.19
2023-03-14T16:41:18.792Z,100071.66
2023-03-14T16:43:46.151Z,100075.84
2023-03-14T16:46:15.742Z,100075.16
2023-03-14T16:48:42.474Z,100072.47
2023-03-14T16:51:08.941Z,100083.31
2023-03-14T16:53:35.711Z,100083.06
2023-03-14T16:56:02.499Z,100086.69
2023-03-14T16:58:29.111Z,100081.06
2023-03-14T17:00:55.625Z,100095.47
2023-03-14T17:03:24.273Z,100099.25
2023-03-14T17:05:52.523Z,100104.00
2023-03-14T17:08:20.766Z,100115.59
2023-03-14T17:10:48.819Z,100112.81
2023-03-14T17:13:15.474Z,100125.47
2023-03-14T17:15:45.836Z,100124.63
2023-03-14T17:18:12.485Z,100126.47
2023-03-14T17:20:40.863Z,100135.19
2023-03-14T17:23:07.462Z,100136.94
2023-03-14T17:25:35.605Z,100145.69
2023-03-14T17:28:02.319Z,100152.75
2023-03-14T17:30:28.893Z,100151.28
2023-03-14T17:32:57.400Z,100164.00
2023-03-14T17:35:25.484Z,100158.91
2023-03-14T17:37:54.568Z,100169.63
2023-03-14T17:40:21.586Z,100174.13
2023-03-14T17:42:48.920Z,100180.59
2023-03-14T17:45:16.522Z,100185.13
2023-03-14T17:47:44.112Z,100188.78
2023-03-14T17:50:11.854Z,100191.59
2023-03-14T17:52:38.830Z,100196.25
2023-03-14T17:55:07.742Z,100199.91
2023-03-14T17:57:36.725Z,100208.94
2023-03-14T18:00:03.711Z,100209.06
2023-03-14T18:02:30.337Z,100208.34
2023-03-14T18:04:56.961Z,100204.94
2023-03-14T18:07:23.611Z,100212.13
2023-03-14T18:09:50.096Z,100218.47
2023-03-14T18:12:18.085Z,100228.47
2023-03-14T18:14:44.724Z,100223.09
2023-03-14T18:17:12.392Z,100233.13
2023-03-14T18:19:38.892Z,100234.13
2023-03-14T18:22:05.595Z,100232.41
2023-03-14T18:24:32.241Z,100240.59
2023-03-14T18:26:58.810Z,100246.94
2023-03-14T18:29:26.802Z,100247.78
2023-03-14T18:31:53.385Z,100259.19
2023-03-14T18:34:19.927Z,100259.34
2023-03-14T18:36:46.405Z,100262.88
2023-03-14T18:39:12.845Z,100261.03
2023-03-14T18:41:39.354Z,100265.53
2023-03-14T18:44:05.922Z,100269.06
2023-03-14T18:46:33.865Z,100271.91
2023-03-14T18:49:00.452Z,100274.44
2023-03-14T18:51:28.231Z,100278.09
2023-03-14T18:54:02.795Z,100279.94
2023-03-14T18:56:35.189Z,100281.78
2023-03-14T18:59:02.115Z,100283.56
2023-03-14T19:01:28.920Z,100292.50
2023-03-14T19:03:59.160Z,100295.28
2023-03-14T19:06:28.359Z,100303.47
2023-03-14T19:08:55.013Z,100306.00
2023-03-14T19:11:21.822Z,100308.69
2023-03-14T19:13:48.572Z,100315.03
2023-03-14T19:16:16.081Z,100305.16
2023-03-14T19:18:43.021Z,100306.84
2023-03-14T19:21:12.770Z,100309.66
2023-03-14T19:23:41.410Z,100306.16
2023-03-14T19:26:08.718Z,100305.28
2023-03-14T19:28:35.915Z,100306.84
2023-03-14T19:31:04.517Z,100314.03
2023-03-14T19:33:31.838Z,100317.56
2023-03-14T19:35:59.101Z,100319.41
2023-03-14T19:38:27.504Z,100328.16
2023-03-14T19:40:57.562Z,100325.59
2023-03-14T19:43:24.839Z,100329.13
2023-03-14T19:45:51.514Z,100332.53
2023-03-14T19:48:18.407Z,100332.53
2023-03-14T19:50:45.033Z,100326.34
2023-03-14T19:53:11.911Z,100332.53
2023-03-14T19:55:40.034Z,100324.34
2023-03-14T19:58:06.672Z,100331.69
2023-03-14T20:00:33.422Z,100337.91
2023-03-14T20:03:00.172Z,100338.63
2023-03-14T20:05:26.973Z,100337.66
2023-03-14T20:07:53.609Z,100347.53
2023-03-14T20:10:21.590Z,100346.53
2023-03-14T20:12:50.957Z,100360.78
2023-03-14T20:15:18.673Z,100354.56
2023-03-14T20:17:45.233Z,100352.72
2023-03-14T20:20:12.342Z,100357.09
2023-03-14T20:22:38.972Z,100351.75
2023-03-14T20:25:07.013Z,100360.53
2023-03-14T20:27:33.604Z,100368.56
2023-03-14T20:30:02.034Z,100362.47
2023-03-14T20:32:28.992Z,100369.56
2023-03-14T20:34:55.495Z,100366.72
2023-03-14T20:37:22.018Z,100365.03
2023-03-14T20:39:48.841Z,100373.06
2023-03-14T20:42:15.758Z,100363.34
2023-03-14T20:44:42.404Z,100381.97
2023-03-14T20:47:11.408Z,100375.75
2023-03-14T20:49:37.874Z,100383.66
2023-03-14T20:52:04.906Z,100390.84
2023-03-14T20:54:31.770Z,100391.59
2023-03-14T20:56:58.422Z,100398.78
2023-03-14T20:59:24.880Z,100391.69
2023-03-14T21:01:51.629Z,100389.88
2023-03-14T21:04:19.690Z,100400.47
2023-03-14T21:06:46.583Z,100401.31
2023-03-14T21:09:13.076Z,100398.03
2023-03-14T21:11:39.536Z,100399.72
2023-03-14T21:14:06.044Z,100405.09
2023-03-14T21:16:32.789Z,100410.47
2023-03-14T21:18:59.507Z,100411.31
2023-03-14T21:21:27.373Z,100417.53
2023-03-14T21:23:53.961Z,100424.69
2023-03-14T21:26:20.506Z,100422.91
2023-03-14T21:28:47.227Z,100425.59
2023-03-14T21:31:13.791Z,100425.59
2023-03-14T21:33:40.487Z,100417.66
2023-03-14T21:36:07.805Z,100423.84
2023-03-14T21:38:35.631Z,100424.84
2023-03-14T21:41:02.202Z,100424.69
2023-03-14T21:43:29.035Z,100438.97
2023-03-14T21:45:55.504Z,100431.91
2023-03-14T21:48:22.085Z,100433.63
2023-03-14T21:50:48.832Z,100433.63
2023-03-14T21:53:15.425Z,100424.69
2023-03-14T21:55:44.273Z,100430.22
2023-03-14T21:58:10.860Z,100432.03
2023-03-14T22:00:37.415Z,100433.72
2023-03-14T22:03:12.912Z,100423.84
2023-03-14T22:05:42.559Z,100423.75
2023-03-14T22:08:09.149Z,100429.22
2023-03-14T22:10:35.692Z,100432.75
2023-03-14T22:13:03.549Z,100437.16
2023-03-14T22:15:30.039Z,100437.25
2023-03-14T22:17:56.541Z,100433.63
2023-03-14T22:20:23.008Z,100430.94
2023-03-14T22:22:49.510Z,100430.06
2023-03-14T22:25:16.100Z,100424.69
2023-03-14T22:27:42.640Z,100431.78
2023-03-14T22:30:11.676Z,100431.78
2023-03-14T22:32:38.382Z,100428.25
2023-03-14T22:35:05.438Z,100431.78
2023-03-14T22:37:32.009Z,100422.03
2023-03-14T22:39:58.632Z,100422.91
2023-03-14T22:42:25.381Z,100426.53
2023-03-14T22:44:52.172Z,100425.69
2023-03-14T22:47:20.248Z,100427.38
2023-03-14T22:49:46.776Z,100427.53
2023-03-14T22:52:13.382Z,100437.25
2023-03-14T22:54:39.865Z,100424.84
2023-03-14T22:57:06.378Z,100421.19
2023-03-14T22:59:32.885Z,100415.81
2023-03-14T23:01:59.355Z,100424.00
2023-03-14T23:04:27.220Z,100423.16
2023-03-14T23:06:53.742Z,100424.00
2023-03-14T23:09:20.284Z,100433.88
2023-03-14T23:11:47.272Z,100428.50
2023-03-14T23:14:13.965Z,100432.88
2023-03-14T23:16:41.184Z,100427.53
2023-03-14T23:19:07.951Z,100424.84
2023-03-14T23:21:35.729Z,100425.69
2023-03-14T23:24:02.190Z,100429.34
2023-03-14T23:26:28.717Z,100424.84
2023-03-14T23:28:55.190Z,100430.34
2023-03-14T23:31:22.241Z,100430.22
2023-03-14T23:33:50.446Z,100440.94
2023-03-14T23:36:18.030Z,100433.88
2023-03-14T23:38:46.472Z,100426.78
2023-03-14T23:41:14.017Z,100436.56
2023-03-14T23:43:42.179Z,100437.50
2023-03-14T23:46:09.218Z,100440.19
2023-03-14T23:48:35.868Z,100441.19
2023-03-14T23:51:04.690Z,100453.59
2023-03-14T23:53:31.781Z,100453.59
2023-03-14T23:55:59.733Z,100458.94
2023-03-14T23:58:26.339Z,100456.28
